Time;durP1;ratioP1;P1;durP2;ratioP2;P2;SDS_P1;SDS_P2;PMS_P1;PMS_P2;Temp;Humidity;BMP_temperature;BMP_pressure;BME280_temperature;BME280_humidity;BME280_pressure;Samples;Min_cycle;Max_cycle;Signal;HPM_P1;HPM_P2
2022/04/22 00:00:24;;;;;;;2.78;2.58;;;19.80;39.90;;;;;;5033705;28;20215;-67
2022/04/22 00:02:51;;;;;;;3.38;3.08;;;19.80;39.60;;;;;;5034002;28;20653;-67
2022/04/22 00:05:18;;;;;;;3.38;3.08;;;19.80;39.60;;;;;;5034233;28;20204;-67
2022/04/22 00:07:45;;;;;;;2.97;2.67;;;19.80;39.80;;;;;;5017202;28;20262;-67
2022/04/22 00:10:12;;;;;;;4.57;2.88;;;19.80;39.90;;;;;;5033788;28;20291;-67
2022/04/22 00:12:39;;;;;;;3.17;2.90;;;19.70;39.80;;;;;;5034747;28;20218;-67
2022/04/22 00:15:07;;;;;;;3.38;2.92;;;19.70;39.90;;;;;;5016956;28;20208;-67
2022/04/22 00:17:35;;;;;;;3.05;2.83;;;19.70;40.10;;;;;;5033409;28;20203;-67
2022/04/22 00:20:03;;;;;;;3.15;2.95;;;19.70;40.10;;;;;;5034499;28;20226;-67
2022/04/22 00:22:30;;;;;;;3.20;2.90;;;19.70;40.00;;;;;;5033404;28;20220;-67
2022/04/22 00:24:57;;;;;;;4.07;3.20;;;19.70;40.10;;;;;;5033317;28;20211;-68
2022/04/22 00:27:24;;;;;;;3.20;2.90;;;19.70;39.90;;;;;;5016605;28;20188;-67
2022/04/22 00:29:51;;;;;;;3.10;2.80;;;19.70;40.00;;;;;;5033245;28;20579;-67
2022/04/22 00:32:18;;;;;;;3.20;2.90;;;19.60;40.10;;;;;;5033124;28;20219;-68
2022/04/22 00:34:47;;;;;;;3.20;2.92;;;19.60;40.10;;;;;;5016657;28;20196;-67
2022/04/22 00:37:14;;;;;;;3.65;3.03;;;19.60;40.00;;;;;;5016431;28;20686;-67
2022/04/22 00:39:41;;;;;;;3.10;2.80;;;19.60;40.10;;;;;;5016493;28;20635;-67
2022/04/22 00:42:10;;;;;;;3.45;3.10;;;19.50;40.00;;;;;;5034071;28;20215;-67
2022/04/22 00:44:37;;;;;;;3.45;3.15;;;19.50;40.10;;;;;;5032843;28;20662;-66
2022/04/22 00:47:05;;;;;;;3.20;3.00;;;19.50;40.00;;;;;;5033760;28;20279;-67
2022/04/22 00:49:32;;;;;;;3.28;2.97;;;19.50;40.10;;;;;;5016309;28;20204;-67
2022/04/22 00:52:00;;;;;;;2.97;2.70;;;19.40;40.10;;;;;;5033987;28;20207;-67
2022/04/22 00:54:28;;;;;;;2.95;2.75;;;19.40;40.10;;;;;;5032584;28;20200;-67
2022/04/22 00:56:55;;;;;;;3.47;2.97;;;19.50;40.40;;;;;;5033938;28;20196;-67
2022/04/22 00:59:22;;;;;;;3.30;3.00;;;19.40;40.10;;;;;;5016512;28;20618;-67
2022/04/22 01:01:49;;;;;;;3.10;2.80;;;19.40;40.10;;;;;;5032652;28;20232;-67
2022/04/22 01:09:49;;;;;;;2.90;2.70;;;19.30;40.20;;;;;;5016763;28;20199;-67
2022/04/22 01:12:17;;;;;;;3.28;2.97;;;19.30;40.30;;;;;;5032676;28;20224;-67
2022/04/22 01:14:44;;;;;;;3.75;3.28;;;19.30;40.30;;;;;;5016218;28;20220;-67
2022/04/22 01:17:11;;;;;;;3.60;2.92;;;19.30;40.20;;;;;;5032290;28;20200;-67
2022/04/22 01:19:39;;;;;;;3.50;3.20;;;19.30;40.20;;;;;;5032258;28;20192;-67
2022/04/22 01:22:08;;;;;;;3.03;2.83;;;19.30;40.30;;;;;;5015761;28;20285;-67
2022/04/22 01:24:35;;;;;;;2.85;2.65;;;19.20;40.20;;;;;;5032436;28;20258;-67
2022/04/22 01:27:02;;;;;;;3.28;3.00;;;19.20;40.30;;;;;;5015923;28;20654;-66
2022/04/22 01:29:29;;;;;;;3.20;3.00;;;19.20;40.30;;;;;;5033716;28;20701;-67
2022/04/22 01:31:56;;;;;;;3.38;3.08;;;19.20;40.30;;;;;;5032129;28;20606;-67
2022/04/22 01:34:23;;;;;;;3.00;2.80;;;19.20;40.40;;;;;;5032081;28;20188;-67
2022/04/22 01:36:50;;;;;;;3.30;3.00;;;19.10;40.30;;;;;;5032075;28;20205;-66
2022/04/22 01:39:19;;;;;;;3.38;3.17;;;19.20;40.50;;;;;;5033286;28;20192;-67
2022/04/22 01:41:46;;;;;;;3.30;3.00;;;19.10;40.50;;;;;;5015402;28;20637;-67
2022/04/22 01:44:13;;;;;;;3.72;3.42;;;19.10;40.40;;;;;;5033705;28;20283;-67
2022/04/22 01:46:41;;;;;;;3.58;3.28;;;19.10;40.40;;;;;;5015728;28;20196;-67
2022/04/22 01:49:08;;;;;;;3.13;2.90;;;19.10;40.60;;;;;;5033517;28;20616;-67
2022/04/22 01:51:35;;;;;;;2.97;2.78;;;19.10;40.50;;;;;;5032129;28;20228;-68
2022/04/22 01:54:03;;;;;;;3.38;2.97;;;19.00;40.50;;;;;;5032214;28;20615;-67
2022/04/22 01:56:31;;;;;;;3.10;2.90;;;19.00;40.50;;;;;;5031968;28;20234;-67
2022/04/22 01:58:58;;;;;;;3.25;2.95;;;19.00;40.50;;;;;;5033400;28;20290;-67
2022/04/22 02:01:26;;;;;;;3.70;3.40;;;19.00;40.50;;;;;;5035693;28;20224;-67
2022/04/22 02:03:53;;;;;;;3.05;2.85;;;19.00;40.50;;;;;;5019318;28;20204;-66
2022/04/22 02:06:20;;;;;;;3.38;3.08;;;19.00;40.50;;;;;;5035968;28;20200;-67
2022/04/22 02:08:47;;;;;;;3.30;3.10;;;19.00;40.50;;;;;;5035867;28;20283;-66
2022/04/22 02:11:15;;;;;;;3.47;3.17;;;18.90;40.40;;;;;;5035523;28;20642;-68
2022/04/22 02:13:44;;;;;;;3.53;3.22;;;18.90;40.40;;;;;;5035819;28;20192;-67
2022/04/22 02:16:12;;;;;;;3.47;3.17;;;18.90;41.10;;;;;;5035721;28;20196;-67
2022/04/22 02:18:41;;;;;;;3.45;3.17;;;18.90;40.60;;;;;;5035718;28;20204;-67
2022/04/22 02:21:09;;;;;;;4.00;3.50;;;18.90;40.60;;;;;;5019059;28;20215;-67
2022/04/22 02:23:36;;;;;;;3.53;3.20;;;18.90;40.70;;;;;;5036768;28;20188;-67
2022/04/22 02:26:04;;;;;;;3.65;3.35;;;18.80;40.50;;;;;;5037045;28;20804;-67
2022/04/22 02:28:33;;;;;;;3.05;2.80;;;18.80;40.70;;;;;;5037095;28;20222;-67
2022/04/22 02:31:02;;;;;;;3.75;3.45;;;18.80;40.70;;;;;;5019017;28;20188;-67
2022/04/22 02:33:30;;;;;;;3.38;3.08;;;18.80;40.80;;;;;;5035483;28;20204;-67
2022/04/22 02:35:57;;;;;;;3.60;3.30;;;18.80;40.70;;;;;;5035421;28;20553;-65
2022/04/22 02:38:24;;;;;;;3.40;3.10;;;18.70;40.70;;;;;;5019051;28;20203;-67
2022/04/22 02:46:21;;;;;;;3.20;2.97;;;18.70;40.70;;;;;;5036246;28;20606;-67
2022/04/22 02:48:48;;;;;;;3.80;3.50;;;18.70;40.70;;;;;;5035137;28;20233;-67
2022/04/22 02:51:16;;;;;;;3.60;3.30;;;18.70;40.80;;;;;;5018481;28;20222;-67
2022/04/22 02:53:43;;;;;;;3.42;3.13;;;18.70;41.40;;;;;;5036407;28;20192;-67
2022/04/22 02:56:11;;;;;;;3.80;3.50;;;18.70;40.90;;;;;;5035083;28;20631;-66
2022/04/22 02:58:38;;;;;;;3.20;3.00;;;18.60;40.80;;;;;;5036443;28;20211;-67
2022/04/22 03:01:05;;;;;;;3.53;3.22;;;18.60;40.80;;;;;;5018190;28;20223;-66
2022/04/22 03:03:34;;;;;;;3.58;3.28;;;18.60;40.80;;;;;;5034852;28;20236;-67
2022/04/22 03:06:01;;;;;;;3.72;3.42;;;18.50;40.80;;;;;;5034775;28;20192;-67
2022/04/22 03:08:28;;;;;;;3.70;3.40;;;18.60;40.90;;;;;;5018251;28;20204;-67
2022/04/22 03:10:55;;;;;;;3.63;3.30;;;18.50;40.90;;;;;;5017872;28;20295;-67
2022/04/22 03:13:22;;;;;;;3.40;3.20;;;18.50;40.90;;;;;;5017996;28;20200;-67
2022/04/22 03:15:49;;;;;;;3.90;3.60;;;18.50;40.90;;;;;;5017989;28;20231;-67
2022/04/22 03:18:16;;;;;;;3.67;3.38;;;18.50;40.90;;;;;;5018067;28;20572;-67
2022/04/22 03:20:45;;;;;;;3.90;3.60;;;18.50;41.00;;;;;;5017982;28;20689;-67
2022/04/22 03:23:12;;;;;;;4.03;3.70;;;18.50;41.00;;;;;;5018027;28;20315;-67
2022/04/22 03:25:40;;;;;;;3.67;3.38;;;18.50;41.10;;;;;;5035686;28;20188;-67
2022/04/22 03:28:08;;;;;;;3.17;2.97;;;18.50;41.10;;;;;;5036099;28;20188;-67
2022/04/22 03:30:37;;;;;;;3.55;3.35;;;18.50;41.10;;;;;;5035732;28;20219;-66
2022/04/22 03:33:04;;;;;;;3.67;3.30;;;18.50;41.10;;;;;;5035607;28;20299;-67
2022/04/22 03:35:32;;;;;;;3.65;3.42;;;18.50;41.10;;;;;;5018139;28;20207;-67
2022/04/22 03:38:00;;;;;;;3.42;3.20;;;18.50;41.10;;;;;;5018244;28;20192;-67
2022/04/22 03:40:27;;;;;;;3.47;3.28;;;18.50;41.10;;;;;;5034230;28;20200;-67
2022/04/22 03:42:55;;;;;;;3.72;3.42;;;18.50;41.10;;;;;;5034176;28;20274;-67
2022/04/22 03:45:22;;;;;;;3.65;3.35;;;18.50;41.00;;;;;;5034325;28;20196;-67
2022/04/22 03:47:51;;;;;;;4.03;3.70;;;18.50;40.90;;;;;;5034529;28;20235;-68
2022/04/22 03:50:18;;;;;;;3.53;3.22;;;18.50;40.90;;;;;;5034243;28;20196;-68
2022/04/22 03:52:45;;;;;;;4.18;3.88;;;18.50;40.80;;;;;;5017525;28;20223;-67
2022/04/22 03:55:13;;;;;;;3.67;3.38;;;18.50;40.80;;;;;;5034161;28;20219;-68
2022/04/22 04:00:24;;;;;;;4.03;3.63;;;18.50;40.90;;;;;;5017492;28;20678;-67
2022/04/22 04:02:52;;;;;;;3.85;3.55;;;18.50;40.80;;;;;;5035015;28;20218;-67
2022/04/22 04:05:18;;;;;;;3.88;3.58;;;18.50;40.90;;;;;;5035239;28;20192;-67
2022/04/22 04:07:46;;;;;;;3.67;3.38;;;18.40;40.90;;;;;;5033832;28;20215;-67
2022/04/22 04:16:01;;;;;;;3.88;3.47;;;18.40;40.70;;;;;;5035170;28;20172;-67
2022/04/22 04:18:29;;;;;;;4.53;4.13;;;18.50;41.00;;;;;;5036121;28;20183;-68
2022/04/22 04:23:42;;;;;;;3.92;3.63;;;18.50;40.90;;;;;;5036280;28;20259;-67
2022/04/22 04:26:10;;;;;;;4.18;3.85;;;18.50;40.90;;;;;;5016991;28;20202;-68
2022/04/22 04:28:37;;;;;;;4.20;3.88;;;18.50;40.70;;;;;;5034987;28;20219;-67
2022/04/22 04:31:05;;;;;;;4.75;4.35;;;18.50;40.70;;;;;;5033483;28;20200;-68
2022/04/22 04:33:32;;;;;;;4.55;4.20;;;18.60;40.70;;;;;;5033413;28;20669;-68
2022/04/22 04:35:59;;;;;;;4.30;4.00;;;18.60;40.70;;;;;;5016862;28;20196;-68
2022/04/22 04:38:26;;;;;;;3.78;3.47;;;18.60;40.50;;;;;;5033240;28;20211;-68
2022/04/22 04:40:53;;;;;;;3.55;3.25;;;18.60;40.60;;;;;;5036458;28;20273;-70
2022/04/22 04:43:22;;;;;;;5.97;3.75;;;18.70;40.60;;;;;;5016975;28;20220;-70
2022/04/22 04:45:50;;;;;;;4.88;3.90;;;18.70;40.50;;;;;;5033286;28;20199;-70
2022/04/22 04:48:17;;;;;;;4.20;3.90;;;18.70;40.60;;;;;;5034363;28;20266;-69
2022/04/22 04:50:45;;;;;;;5.00;4.22;;;18.70;40.20;;;;;;5033292;28;20227;-69
2022/04/22 04:53:13;;;;;;;5.53;3.80;;;18.70;40.30;;;;;;5032888;28;20216;-69
2022/04/22 04:55:40;;;;;;;4.82;4.43;;;18.70;40.60;;;;;;5034206;28;20191;-69
2022/04/22 04:58:06;;;;;;;4.93;4.53;;;18.70;40.90;;;;;;5032745;28;20728;-70
2022/04/22 05:00:35;;;;;;;4.80;4.40;;;18.70;40.90;;;;;;5034266;28;20681;-69
2022/04/22 05:03:02;;;;;;;4.40;4.00;;;18.70;40.70;;;;;;5033861;28;20736;-69
2022/04/22 05:05:29;;;;;;;5.18;4.70;;;18.80;41.10;;;;;;5032776;28;20196;-69
2022/04/22 05:07:57;;;;;;;5.30;4.82;;;18.80;41.20;;;;;;5032882;28;20208;-69
2022/04/22 05:10:25;;;;;;;4.63;4.22;;;18.90;41.20;;;;;;5016320;28;20246;-69
2022/04/22 05:12:52;;;;;;;4.95;4.55;;;18.90;40.80;;;;;;5034089;28;20215;-69
2022/04/22 05:15:22;;;;;;;4.50;4.10;;;18.90;40.90;;;;;;5016022;28;20207;-69
2022/04/22 05:17:50;;;;;;;4.75;4.28;;;19.00;40.50;;;;;;5016059;28;20737;-68
2022/04/22 05:20:18;;;;;;;4.40;4.10;;;19.00;40.80;;;;;;5016011;28;20200;-69
2022/04/22 05:22:45;;;;;;;4.43;4.05;;;19.10;41.00;;;;;;5032526;28;20224;-68
2022/04/22 05:25:14;;;;;;;4.30;4.00;;;19.20;40.90;;;;;;5032418;28;20196;-68
2022/04/22 05:27:41;;;;;;;3.72;3.50;;;19.30;40.80;;;;;;5033911;28;20184;-68
2022/04/22 05:32:55;;;;;;;4.13;3.80;;;19.50;40.50;;;;;;5015207;28;20215;-68
2022/04/22 05:35:23;;;;;;;4.47;4.05;;;19.60;40.00;;;;;;5033338;28;20595;-68
2022/04/22 05:37:51;;;;;;;3.90;3.60;;;19.80;39.90;;;;;;5015797;28;20192;-67
2022/04/22 05:40:19;;;;;;;4.50;4.10;;;19.90;39.70;;;;;;5033450;28;20192;-68
2022/04/22 05:42:47;;;;;;;4.18;3.88;;;20.10;39.30;;;;;;5033396;28;20208;-67
2022/04/22 05:45:15;;;;;;;3.92;3.63;;;20.30;39.10;;;;;;5032289;28;20200;-68
2022/04/22 05:47:42;;;;;;;5.30;4.90;;;20.40;38.90;;;;;;5032489;28;20584;-67
2022/04/22 05:50:11;;;;;;;4.45;4.05;;;20.50;38.60;;;;;;5033296;28;20207;-67
2022/04/22 05:52:39;;;;;;;5.53;5.03;;;20.70;38.30;;;;;;5033287;28;20210;-67
2022/04/22 05:55:07;;;;;;;4.07;3.78;;;20.80;38.50;;;;;;5033304;28;20276;-67
2022/04/22 05:57:35;;;;;;;5.57;5.18;;;20.90;37.90;;;;;;5033432;28;20666;-67
2022/04/22 06:00:05;;;;;;;5.20;4.18;;;21.10;37.60;;;;;;5015625;28;20192;-67
2022/04/22 06:02:39;;;;;;;6.00;5.50;;;21.20;37.60;;;;;;5033347;28;20242;-67
2022/04/22 06:05:06;;;;;;;5.85;5.35;;;21.30;37.30;;;;;;5033293;28;20666;-67
2022/04/22 06:07:35;;;;;;;6.30;5.70;;;21.40;37.10;;;;;;5032065;28;20206;-67
2022/04/22 06:12:48;;;;;;;6.45;5.95;;;21.60;36.80;;;;;;5015709;28;20309;-67
2022/04/22 06:15:15;;;;;;;6.78;6.18;;;21.70;36.60;;;;;;5033212;28;20625;-67
2022/04/22 06:17:42;;;;;;;6.75;6.15;;;21.80;36.40;;;;;;5032085;28;20200;-67
2022/04/22 06:20:10;;;;;;;6.45;5.47;;;22.00;36.20;;;;;;5015752;28;20200;-68
2022/04/22 06:22:39;;;;;;;6.65;6.05;;;22.10;36.20;;;;;;5032058;28;20219;-68
2022/04/22 06:25:08;;;;;;;7.22;6.63;;;22.10;35.90;;;;;;5015531;28;20199;-68
2022/04/22 06:27:39;;;;;;;6.65;6.05;;;22.20;35.80;;;;;;5033078;28;20195;-68
2022/04/22 06:30:08;;;;;;;6.80;6.20;;;22.40;35.80;;;;;;5032188;28;20196;-67
2022/04/22 06:32:37;;;;;;;6.60;6.00;;;22.40;35.50;;;;;;5033277;28;20696;-67
2022/04/22 06:35:04;;;;;;;7.38;6.78;;;22.50;35.40;;;;;;5015405;28;20196;-67
2022/04/22 06:37:34;;;;;;;6.50;5.80;;;22.60;35.20;;;;;;5032958;28;20199;-67
2022/04/22 06:45:49;;;;;;;6.32;5.80;;;22.90;34.60;;;;;;5035132;28;20172;-67
2022/04/22 06:48:18;;;;;;;6.07;5.57;;;23.00;34.40;;;;;;5036130;28;20192;-68
2022/04/22 06:50:46;;;;;;;6.95;6.35;;;23.10;34.40;;;;;;5036858;28;20252;-67
2022/04/22 06:53:15;;;;;;;6.20;5.70;;;23.20;34.20;;;;;;5035398;28;20220;-67
2022/04/22 06:55:44;;;;;;;6.55;5.95;;;23.30;34.10;;;;;;5035275;28;20207;-67
2022/04/22 06:58:12;;;;;;;6.85;6.25;;;23.40;34.00;;;;;;5018589;28;20200;-67
2022/04/22 07:00:39;;;;;;;7.28;6.50;;;23.50;33.90;;;;;;5018751;28;20574;-67
2022/04/22 07:03:07;;;;;;;6.28;5.78;;;23.50;33.60;;;;;;5018472;28;20590;-68
2022/04/22 07:05:35;;;;;;;5.78;5.28;;;23.60;33.70;;;;;;5035063;28;20204;-67
2022/04/22 07:08:03;;;;;;;5.85;5.30;;;23.70;33.50;;;;;;5036164;28;20733;-67
2022/04/22 07:10:30;;;;;;;5.43;5.03;;;23.80;33.50;;;;;;5018409;28;20662;-67
2022/04/22 07:12:59;;;;;;;4.40;4.10;;;23.80;33.30;;;;;;5018350;28;20220;-67
2022/04/22 07:15:26;;;;;;;6.15;5.65;;;23.90;33.20;;;;;;5018274;28;20228;-67
2022/04/22 07:17:53;;;;;;;4.30;3.90;;;24.00;33.00;;;;;;5034876;28;20196;-67
2022/04/22 07:20:21;;;;;;;4.93;4.53;;;24.00;32.90;;;;;;5034856;28;20216;-67
2022/04/22 07:22:49;;;;;;;3.90;3.60;;;24.10;32.90;;;;;;5018057;28;20227;-67
2022/04/22 07:25:17;;;;;;;4.10;3.70;;;24.20;32.90;;;;;;5034660;28;20203;-67
2022/04/22 07:27:45;;;;;;;4.57;4.28;;;24.20;32.70;;;;;;5035825;28;20198;-67
2022/04/22 07:30:14;;;;;;;4.13;3.83;;;24.30;32.60;;;;;;5034808;28;20204;-67
2022/04/22 07:32:45;;;;;;;4.05;3.65;;;24.40;32.50;;;;;;5018210;28;20238;-67
2022/04/22 07:35:14;;;;;;;4.28;3.80;;;24.40;32.40;;;;;;5034658;28;20616;-67
2022/04/22 07:37:41;;;;;;;3.55;3.25;;;24.50;32.30;;;;;;5034713;28;20227;-67
2022/04/22 07:40:09;;;;;;;3.72;3.42;;;24.60;32.20;;;;;;5018133;28;20204;-68
2022/04/22 07:42:36;;;;;;;3.42;3.13;;;24.60;32.00;;;;;;5035846;28;20286;-67
2022/04/22 07:47:51;;;;;;;3.40;3.10;;;24.80;31.80;;;;;;5017853;28;20196;-67
2022/04/22 07:50:18;;;;;;;3.88;3.58;;;24.90;31.80;;;;;;5034226;28;20204;-67
2022/04/22 07:52:46;;;;;;;3.70;3.40;;;24.90;31.60;;;;;;5034209;28;20216;-67
2022/04/22 07:55:14;;;;;;;3.45;3.08;;;25.00;31.50;;;;;;5035606;28;20188;-68
2022/04/22 07:57:41;;;;;;;3.17;2.65;;;25.00;31.20;;;;;;5034383;28;20541;-67
2022/04/22 08:00:09;;;;;;;2.97;2.78;;;25.10;31.30;;;;;;5017647;28;20591;-67
2022/04/22 08:02:40;;;;;;;3.30;3.10;;;25.20;31.40;;;;;;5017431;28;20220;-67
2022/04/22 08:05:11;;;;;;;3.28;3.03;;;25.20;31.10;;;;;;5017339;28;20780;-67
2022/04/22 08:07:38;;;;;;;3.35;3.08;;;25.30;31.00;;;;;;5034011;28;20207;-67
2022/04/22 08:10:06;;;;;;;3.10;2.80;;;25.40;31.00;;;;;;5034983;28;20192;-67
2022/04/22 08:12:33;;;;;;;3.42;3.13;;;25.40;30.80;;;;;;5034310;28;20319;-67
2022/04/22 08:15:01;;;;;;;2.92;2.72;;;25.40;30.70;;;;;;5033645;28;20207;-67
2022/04/22 08:17:32;;;;;;;3.30;3.00;;;25.50;30.70;;;;;;5033806;28;20207;-67
2022/04/22 08:19:59;;;;;;;3.30;3.00;;;25.50;30.50;;;;;;5035258;28;20263;-67
2022/04/22 08:22:28;;;;;;;3.15;2.85;;;25.60;30.50;;;;;;5034720;28;20212;-68
2022/04/22 08:24:55;;;;;;;3.20;2.75;;;25.60;30.40;;;;;;5034769;28;20192;-68
2022/04/22 08:27:22;;;;;;;3.15;2.95;;;25.60;30.30;;;;;;5017122;28;20641;-68
2022/04/22 08:29:49;;;;;;;2.92;2.72;;;25.70;30.40;;;;;;5033626;28;20281;-68
2022/04/22 08:32:16;;;;;;;2.97;2.78;;;25.70;31.00;;;;;;5033559;28;20640;-67
2022/04/22 08:34:44;;;;;;;3.50;3.20;;;25.80;30.30;;;;;;5034865;28;20565;-67
2022/04/22 08:37:12;;;;;;;3.10;2.85;;;25.80;30.30;;;;;;5033382;28;20238;-67
2022/04/22 08:39:40;;;;;;;2.90;2.70;;;25.80;30.20;;;;;;5033159;28;20204;-67
2022/04/22 08:42:07;;;;;;;3.03;2.83;;;25.80;30.10;;;;;;5016855;28;20222;-67
2022/04/22 08:44:35;;;;;;;3.15;2.90;;;25.90;30.10;;;;;;5016574;28;20586;-67
2022/04/22 08:49:59;;;;;;;3.22;3.03;;;25.90;30.00;;;;;;5016779;28;20210;-67
2022/04/22 08:52:27;;;;;;;3.05;2.85;;;25.90;30.00;;;;;;5034290;28;20230;-67
2022/04/22 08:54:55;;;;;;;3.40;3.10;;;26.00;30.00;;;;;;5033019;28;20662;-67
2022/04/22 08:57:22;;;;;;;2.85;2.65;;;26.00;30.10;;;;;;5016469;28;20208;-68
2022/04/22 08:59:50;;;;;;;3.13;2.92;;;26.00;29.90;;;;;;5034264;28;20196;-67
2022/04/22 09:02:17;;;;;;;2.95;2.75;;;26.10;29.90;;;;;;5033349;28;20310;-68
2022/04/22 09:04:44;;;;;;;2.80;2.60;;;26.10;30.40;;;;;;5033038;28;20216;-68
2022/04/22 09:07:13;;;;;;;2.90;2.70;;;26.10;29.80;;;;;;5016290;28;20326;-67
2022/04/22 09:09:40;;;;;;;3.10;2.90;;;26.20;29.80;;;;;;5034074;28;20222;-67
2022/04/22 09:12:10;;;;;;;3.17;2.97;;;26.20;29.80;;;;;;5033984;28;20697;-67
2022/04/22 09:14:44;;;;;;;3.03;2.83;;;26.20;29.80;;;;;;5034247;28;20234;-67
2022/04/22 09:17:11;;;;;;;2.95;2.75;;;26.20;29.80;;;;;;5032702;28;20204;-67
2022/04/22 09:19:38;;;;;;;3.13;2.92;;;26.20;29.80;;;;;;5016433;28;20211;-68
2022/04/22 09:22:05;;;;;;;3.00;2.80;;;26.20;29.80;;;;;;5034193;28;20204;-69
2022/04/22 09:24:32;;;;;;;3.10;2.90;;;26.20;29.70;;;;;;5016129;28;20227;-67
2022/04/22 09:27:05;;;;;;;2.90;2.70;;;26.20;29.80;;;;;;5032464;28;20196;-67
2022/04/22 09:29:42;;;;;;;2.83;2.63;;;26.20;29.70;;;;;;5033712;28;20222;-67
2022/04/22 09:32:13;;;;;;;3.10;2.90;;;26.20;29.80;;;;;;5033632;28;20346;-68
2022/04/22 09:34:42;;;;;;;3.08;2.88;;;26.20;29.70;;;;;;5031519;28;20611;-67
2022/04/22 09:42:50;;;;;;;3.40;3.10;;;26.20;29.80;;;;;;5034567;28;20212;-68
2022/04/22 09:45:19;;;;;;;3.10;2.90;;;26.20;29.90;;;;;;5032571;28;20195;-68
2022/04/22 09:47:56;;;;;;;3.25;3.05;;;26.20;29.90;;;;;;5032462;28;20215;-68
2022/04/22 09:50:39;;;;;;;3.13;2.83;;;26.20;29.90;;;;;;5015812;28;20283;-68
2022/04/22 09:53:07;;;;;;;3.35;3.15;;;26.10;29.90;;;;;;5033429;28;20212;-67
2022/04/22 09:55:36;;;;;;;3.10;2.80;;;26.10;29.90;;;;;;5033299;28;20184;-67
2022/04/22 09:58:03;;;;;;;3.22;3.03;;;26.20;30.00;;;;;;5032039;28;20196;-67
2022/04/22 10:00:32;;;;;;;2.80;2.60;;;26.10;30.00;;;;;;5033224;28;20203;-67
2022/04/22 10:03:00;;;;;;;3.40;3.20;;;26.10;30.00;;;;;;5031952;28;20250;-67
2022/04/22 10:05:27;;;;;;;2.85;2.65;;;26.10;30.00;;;;;;5031844;28;20200;-68
2022/04/22 10:07:56;;;;;;;3.00;2.80;;;26.00;30.00;;;;;;5033250;28;20192;-67
2022/04/22 10:10:28;;;;;;;3.20;3.00;;;26.00;30.60;;;;;;5033175;28;20274;-67
2022/04/22 10:12:57;;;;;;;3.13;2.92;;;26.00;30.00;;;;;;5031841;28;20305;-67
2022/04/22 10:15:26;;;;;;;3.00;2.80;;;26.00;30.00;;;;;;5033291;28;20207;-67
2022/04/22 10:17:54;;;;;;;2.97;2.78;;;26.00;30.10;;;;;;5015652;28;20271;-67
2022/04/22 10:20:21;;;;;;;2.90;2.70;;;26.00;30.10;;;;;;5017407;28;20204;-67
2022/04/22 10:22:49;;;;;;;3.20;3.00;;;26.00;30.10;;;;;;5037020;28;20298;-67
2022/04/22 10:25:16;;;;;;;3.30;3.05;;;26.00;30.20;;;;;;5035782;28;20651;-68
2022/04/22 10:27:43;;;;;;;2.80;2.60;;;25.90;30.20;;;;;;5035834;28;20710;-67
2022/04/22 10:30:11;;;;;;;2.95;2.75;;;25.90;30.20;;;;;;5019181;28;20270;-67
2022/04/22 10:32:39;;;;;;;3.13;2.92;;;25.90;30.30;;;;;;5035637;28;20258;-67
2022/04/22 10:35:08;;;;;;;3.10;2.90;;;25.90;30.40;;;;;;5036785;28;20303;-67
2022/04/22 10:37:38;;;;;;;3.25;3.05;;;25.90;30.40;;;;;;5037029;28;20196;-67
2022/04/22 10:40:05;;;;;;;3.00;2.80;;;25.80;31.10;;;;;;5037155;28;20195;-71
2022/04/22 10:42:33;;;;;;;3.10;2.90;;;25.80;30.50;;;;;;5036820;28;20211;-70
2022/04/22 10:47:47;;;;;;;3.30;3.00;;;25.80;30.60;;;;;;5036652;28;20183;-70
2022/04/22 10:50:26;;;;;;;2.83;2.63;;;25.70;30.70;;;;;;5036627;28;20579;-70
2022/04/22 10:53:01;;;;;;;2.92;2.72;;;25.80;30.80;;;;;;5035470;28;20247;-71
2022/04/22 10:55:36;;;;;;;2.92;2.72;;;25.70;30.80;;;;;;5035466;28;20226;-70
2022/04/22 10:58:23;;;;;;;3.00;2.80;;;25.60;30.80;;;;;;5036408;28;20173;-71
2022/04/22 11:00:51;;;;;;;3.00;2.80;;;25.60;30.90;;;;;;5036677;28;20184;-70
2022/04/22 11:03:19;;;;;;;3.15;2.95;;;25.60;31.00;;;;;;5018624;28;20203;-70
2022/04/22 11:05:57;;;;;;;2.78;2.58;;;25.60;31.10;;;;;;5035130;28;20207;-70
2022/04/22 11:08:32;;;;;;;2.72;2.53;;;25.50;31.20;;;;;;5036637;28;20186;-70
2022/04/22 11:11:10;;;;;;;2.92;2.72;;;25.50;31.90;;;;;;5035193;28;20200;-71
2022/04/22 11:13:42;;;;;;;3.00;2.80;;;25.50;31.50;;;;;;5036359;28;20183;-70
2022/04/22 11:16:12;;;;;;;2.80;2.60;;;25.40;31.50;;;;;;5035361;28;20295;-71
2022/04/22 11:18:40;;;;;;;2.80;2.60;;;25.40;31.40;;;;;;5018591;28;20196;-71
2022/04/22 11:21:13;;;;;;;3.00;2.80;;;25.40;31.50;;;;;;5034807;28;20227;-70
2022/04/22 11:23:42;;;;;;;3.08;2.83;;;25.40;31.50;;;;;;5018495;28;20728;-70
2022/04/22 11:26:12;;;;;;;2.85;2.65;;;25.40;31.50;;;;;;5034886;28;20227;-70
2022/04/22 11:28:40;;;;;;;3.28;2.97;;;25.40;31.50;;;;;;5018234;28;20204;-71
2022/04/22 11:31:08;;;;;;;2.90;2.70;;;25.40;31.50;;;;;;5016728;28;20211;-70
2022/04/22 11:34:02;;;;;;;2.80;2.60;;;25.40;31.50;;;;;;5034750;28;20199;-71
2022/04/22 11:36:30;;;;;;;2.95;2.75;;;25.40;32.10;;;;;;5018215;28;20239;-71
2022/04/22 11:38:57;;;;;;;3.17;2.88;;;25.40;31.50;;;;;;5018135;28;20621;-71
2022/04/22 11:41:25;;;;;;;3.30;3.10;;;25.40;31.50;;;;;;5035177;28;20212;-70
2022/04/22 11:43:52;;;;;;;3.40;3.10;;;25.40;31.50;;;;;;5036013;28;20204;-70
2022/04/22 11:46:19;;;;;;;2.90;2.70;;;25.40;31.70;;;;;;5034506;28;20231;-71
2022/04/22 11:48:47;;;;;;;3.10;2.90;;;25.30;31.70;;;;;;5017968;28;20211;-71
2022/04/22 11:51:15;;;;;;;2.90;2.70;;;25.40;31.90;;;;;;5035989;28;20248;-71
2022/04/22 11:53:50;;;;;;;3.38;3.05;;;25.30;31.80;;;;;;5035501;28;20212;-70
2022/04/22 11:56:19;;;;;;;2.88;2.67;;;25.30;31.90;;;;;;5034614;28;20204;-70
2022/04/22 11:58:47;;;;;;;2.83;2.63;;;25.30;32.00;;;;;;5034203;28;20262;-70
2022/04/22 12:06:45;;;;;;;2.90;2.70;;;25.20;32.10;;;;;;4997978;28;20220;-70
2022/04/22 12:09:13;;;;;;;3.05;2.85;;;25.20;32.20;;;;;;5015281;28;20189;-70
2022/04/22 12:11:42;;;;;;;2.75;2.60;;;25.20;32.10;;;;;;5015204;28;20302;-70
2022/04/22 12:14:09;;;;;;;2.83;2.63;;;25.20;32.20;;;;;;4998276;28;20197;-71
2022/04/22 12:16:38;;;;;;;2.90;2.70;;;25.20;32.20;;;;;;4998045;28;20227;-71
2022/04/22 12:19:06;;;;;;;2.95;2.75;;;25.20;32.30;;;;;;4997719;28;20208;-70
2022/04/22 12:21:34;;;;;;;2.83;2.63;;;25.20;32.40;;;;;;5015165;28;20259;-70
2022/04/22 12:24:02;;;;;;;3.00;2.80;;;25.10;32.30;;;;;;5015272;28;20578;-70
2022/04/22 12:26:32;;;;;;;3.20;3.00;;;25.10;32.40;;;;;;5014939;28;20197;-71
2022/04/22 12:29:00;;;;;;;3.22;3.03;;;25.10;32.50;;;;;;4997479;28;20655;-70
2022/04/22 12:31:28;;;;;;;2.95;2.80;;;25.10;32.50;;;;;;5014796;28;20240;-70
2022/04/22 12:34:00;;;;;;;3.00;2.80;;;25.00;32.50;;;;;;5014871;28;20189;-70
2022/04/22 12:36:27;;;;;;;3.00;2.80;;;25.00;32.70;;;;;;5014784;28;20552;-70
2022/04/22 12:38:54;;;;;;;3.00;2.80;;;24.90;32.60;;;;;;4997546;28;20201;-71
2022/04/22 12:41:22;;;;;;;2.88;2.67;;;24.90;32.70;;;;;;4997067;28;20221;-72
2022/04/22 12:43:52;;;;;;;3.10;2.90;;;24.90;32.80;;;;;;5014150;28;20196;-71
2022/04/22 12:52:12;;;;;;;2.90;2.70;;;24.80;32.80;;;;;;4996919;28;20231;-71
2022/04/22 12:54:40;;;;;;;3.05;2.85;;;24.80;32.90;;;;;;4997174;28;20236;-72
2022/04/22 12:57:10;;;;;;;2.90;2.70;;;24.90;33.00;;;;;;5014511;28;20670;-71
2022/04/22 12:59:42;;;;;;;2.90;2.70;;;24.80;33.00;;;;;;5014520;28;20673;-72
2022/04/22 13:02:10;;;;;;;3.30;3.10;;;24.80;33.00;;;;;;5013418;28;20234;-71
2022/04/22 13:04:50;;;;;;;3.30;2.95;;;24.70;32.90;;;;;;5014174;28;20209;-71
2022/04/22 13:07:18;;;;;;;3.10;2.90;;;24.80;33.10;;;;;;4996692;28;20201;-71
2022/04/22 13:09:45;;;;;;;2.80;2.60;;;24.80;33.10;;;;;;5014315;28;20208;-71
2022/04/22 13:12:13;;;;;;;2.63;2.50;;;24.70;33.00;;;;;;4996668;28;20252;-72
2022/04/22 13:14:40;;;;;;;2.92;2.72;;;24.80;33.10;;;;;;4996561;28;20212;-72
2022/04/22 13:17:08;;;;;;;3.00;2.80;;;24.80;33.20;;;;;;5014513;28;20228;-71
2022/04/22 13:19:35;;;;;;;2.63;2.50;;;24.80;33.80;;;;;;5012136;28;20289;-72
2022/04/22 13:22:02;;;;;;;3.05;2.85;;;24.80;33.20;;;;;;5013314;28;20228;-72
2022/04/22 13:24:29;;;;;;;2.80;2.60;;;24.70;33.20;;;;;;5012764;28;20248;-72
2022/04/22 13:26:57;;;;;;;3.00;2.80;;;24.70;33.30;;;;;;5014007;28;20196;-72
2022/04/22 13:29:24;;;;;;;3.10;2.90;;;24.70;33.30;;;;;;5012810;28;20575;-71
2022/04/22 13:31:51;;;;;;;2.75;2.55;;;24.70;33.40;;;;;;5013834;28;20217;-71
2022/04/22 13:34:20;;;;;;;3.00;2.80;;;24.70;33.40;;;;;;5014004;28;20247;-72
2022/04/22 13:36:47;;;;;;;2.97;2.78;;;24.70;33.40;;;;;;5013970;28;20692;-71
2022/04/22 13:39:14;;;;;;;3.00;2.80;;;24.70;33.40;;;;;;5014159;28;20185;-72
2022/04/22 13:41:41;;;;;;;2.65;2.55;;;24.70;33.40;;;;;;5013861;28;20213;-71
2022/04/22 13:44:09;;;;;;;3.00;2.80;;;24.60;33.40;;;;;;5012414;28;20197;-72
2022/04/22 13:52:25;;;;;;;3.20;3.00;;;24.60;33.30;;;;;;5013645;28;20223;-72
2022/04/22 13:54:58;;;;;;;3.20;2.90;;;24.60;33.30;;;;;;5011539;22;20235;-71
2022/04/22 13:57:25;;;;;;;3.17;2.97;;;24.60;33.50;;;;;;5011459;28;20215;-71